logo
App data

Epsilon

Epsilon is a hybrid stealth-action near-future tactical shooter where pre-planning and commanding your squad is essential for survival. Through high intensity kinetic operations, Epsilon is the unit tasked by Unipol to counter Eastern European militias engaged in human trafficking.
Store | Hub | SteamDB | Site
Developer: Serellan LLC Publisher: Serellan LLC
Genre: Action, Indie, Strategy, Early Access
Languages: English
Tags: Action (34), Early Access (32), Strategy (32), Indie (31), Tactical (15), FPS (10)
Category: Single-player, Steam Achievements, Steam Trading Cards, Partial Controller Support
Release date: Oct 1, 2015
N/A
Old userscore: 57% Owners: 50,000 .. 100,000
Followers: 1,929
YouTube stats: 45,171 views and 367 comments for top 50 videos uploaded last week, 10 new videos uploaded yesterday.
Playtime total: 08:36 (average) 10:37 (median)

Steam Spy is still in beta, so expect major bugs.

Owners data:

Access restricted.

This feature is only available to users with special access rights. Sorry.

If you want to proceed, you need to register or log in first and then back Steam Spy on Patreon. Look for Indie or Pro pledge.

Don't forget to use the same email as on Steam Spy!

Audience in 2 weeks:

Access restricted.

This feature is only available to users with special access rights. Sorry.

If you want to proceed, you need to register or log in first and then back Steam Spy on Patreon. Look for Indie or Pro pledge.

Don't forget to use the same email as on Steam Spy!

Peak daily concurrent players:

CCU data courtesy of SteamDB. Used with permission.

Hourly concurrent players:

Followers over time

Access restricted.

This feature is only available to users with special access rights. Sorry.

If you want to proceed, you need to register or log in first and then back Steam Spy on Patreon. Look for Indie or Pro pledge.

Don't forget to use the same email as on Steam Spy!

Views for top 50 videos on YouTube for this game:

Games similar to this one:

# Game Release date
Price
Score rank
(Userscore / Metascore)
Owners
Players
Playtime (Median)
1 An Imp? A Fiend! Mar 16, 2015 $0.99N/A (N/A)20,000 .. 50,0000%00:00 (00:00)
2 Just Get Through Jan 30, 2015 $4.99N/A (N/A)20,000 .. 50,0000%00:00 (00:00)
3 Good Robot Apr 5, 2016 $8.99N/A (N/A/67%)20,000 .. 50,0000%00:00 (00:00)
4 Elements: Soul of Fire Jan 12, 2015 N/AN/A (N/A)100,000 .. 200,0003.03%00:45 (00:29)
5 Celestian Tales: Old North Aug 10, 2015 $12.99N/A (N/A)50,000 .. 100,0000%00:00 (00:00)
6 The Lady Jan 29, 2015 FreeN/A (N/A)50,000 .. 100,0000%00:00 (00:00)
7 Parcel Apr 22, 2015 $4.99N/A (N/A)0 .. 20,0000%00:00 (00:00)
8 Zotrix Jul 24, 2015 $12.99N/A (N/A)50,000 .. 100,0000%00:00 (00:00)
9 Data Hacker: Reboot Apr 17, 2015 $4.99N/A (N/A)50,000 .. 100,0002.6%00:01 (00:00)
10 Vox Populi Vox Dei 2 Mar 1, 2015 $2.99N/A (N/A)50,000 .. 100,0000%00:00 (00:00)
11 1Quest Dec 3, 2014 $3.99N/A (N/A)50,000 .. 100,0000%00:00 (00:00)
12 Vapour Jul 3, 2015 $9.99N/A (N/A)50,000 .. 100,0000%00:00 (00:00)
13 Squirreltopia Jan 12, 2015 $1.99N/A (N/A)20,000 .. 50,0000%00:00 (00:00)
14 Joe's Diner Mar 31, 2015 $7.99N/A (N/A)0 .. 20,0000%00:00 (00:00)
15 Final Dusk Dec 12, 2014 $2.99N/A (N/A)100,000 .. 200,0000%00:00 (00:00)
16 Galaxy of Pen & Paper +1 Jul 27, 2017 $14.99N/A (N/A)20,000 .. 50,0000%00:00 (00:00)
17 The Mims Beginning Jan 14, 2015 $2.54N/A (N/A)0 .. 20,0000%00:00 (00:00)
18 Toby: The Secret Mine Oct 20, 2015 $9.99N/A (N/A)20,000 .. 50,0000%00:00 (00:00)
19 SoulCraft Jun 1, 2015 $4.99N/A (N/A)20,000 .. 50,0000%00:00 (00:00)
20 This Book Is A Dungeon Oct 9, 2015 $4.99N/A (N/A)0 .. 20,0000%00:00 (00:00)
21 Girl Amazon Survival Aug 16, 2016 $2.99N/A (N/A)50,000 .. 100,0000%00:00 (00:00)
22 Remnants Of Isolation May 1, 2015 $1.99N/A (N/A)50,000 .. 100,0000%00:00 (00:00)
23 Shot In The Dark Jun 10, 2015 FreeN/A (N/A)50,000 .. 100,0000%00:00 (00:00)
24 Face It - A game to fight inner demons Jun 9, 2017 $3.99N/A (N/A)100,000 .. 200,0000%00:00 (00:00)
25 Fitz the Fox Aug 6, 2015 $3.99N/A (N/A)20,000 .. 50,0000%00:00 (00:00)
26 Lucius Demake Aug 8, 2016 $1.24N/A (N/A)20,000 .. 50,0000%00:00 (00:00)
27 Stargazer May 28, 2015 $4.99N/A (N/A)50,000 .. 100,0000%00:00 (00:00)
28 SUPER DISTRO Jul 22, 2015 $0.99N/A (N/A)200,000 .. 500,0000%00:00 (00:00)
29 16bit Trader Jun 4, 2015 $2.99N/A (N/A)200,000 .. 500,0000%00:00 (00:00)
30 Gynophobia Jul 31, 2015 $1.99N/A (N/A)20,000 .. 50,0000%00:00 (00:00)
31 Six Sides of the World Jan 20, 2016 $4.99N/A (N/A)20,000 .. 50,0000%00:00 (00:00)
32 Iggy's Egg Adventure Aug 27, 2015 N/AN/A (N/A)20,000 .. 50,0000%00:00 (00:00)
33 Shadow Ninja: Apocalypse Nov 16, 2015 $0.49N/A (N/A)0 .. 20,0000%00:00 (00:00)
34 Albert and Otto Oct 28, 2015 $2.49N/A (N/A/69%)100,000 .. 200,0000%00:00 (00:00)
35 The Last Hope: Trump vs Mafia - North Korea Jan 20, 2017 $0.99N/A (N/A)50,000 .. 100,0000%00:00 (00:00)
36 Scrap Garden May 6, 2016 $9.99N/A (N/A/58%)50,000 .. 100,0000%00:00 (00:00)
37 The End Is Nigh Jul 12, 2017 $14.99N/A (N/A/84%)100,000 .. 200,00011.11%02:12 (00:44)
38 Where's My Helmet? May 20, 2016 $0.99N/A (N/A)20,000 .. 50,0000%00:00 (00:00)
39 Planet R-12 May 5, 2016 $0.99N/A (N/A)20,000 .. 50,0000%00:00 (00:00)
40 Planet Driller Jul 4, 2016 $1.99N/A (N/A)20,000 .. 50,0000%00:00 (00:00)
41 Life is Hard Nov 3, 2015 $9.99N/A (N/A)50,000 .. 100,0000%00:00 (00:00)
42 Fly and Destroy Jul 27, 2016 $10.99N/A (N/A)50,000 .. 100,0000%00:00 (00:00)
43 Squirbs Jan 6, 2016 $1.99N/A (N/A)100,000 .. 200,0009.09%06:22 (02:07)
44 Sundered: Eldritch Edition Jul 28, 2017 $19.99N/A (N/A)200,000 .. 500,0000%00:00 (00:00)
45 Artificial Defense Jun 1, 2016 $2.99N/A (N/A)20,000 .. 50,0000%00:00 (00:00)
46 Tales of the Elements Oct 7, 2016 $6.99N/A (N/A)50,000 .. 100,0000%00:00 (00:00)
47 Love is Blind: Mutants Mar 15, 2016 N/AN/A (N/A)50,000 .. 100,0001.82%00:01 (00:00)
48 A Trip to Yugoslavia: Director's Cut Feb 22, 2017 $0.99N/A (N/A)50,000 .. 100,0000%00:00 (00:00)
49 Kaboom Monsters Jul 7, 2016 $2.99N/A (N/A)20,000 .. 50,0000%00:00 (00:00)
50 No Way Out Oct 4, 2018 $0.99N/A (N/A)20,000 .. 50,00016.67%02:03 (00:41)
51 Hero Battle Apr 28, 2016 $6.99N/A (N/A)50,000 .. 100,0000%00:00 (00:00)
52 Mr. Bree+ Nov 26, 2013 $2.99N/A (N/A)20,000 .. 50,0000%00:00 (00:00)
53 See No Evil Aug 25, 2014 $0.99N/A (N/A)100,000 .. 200,0000%00:00 (00:00)
54 Chip Apr 25, 2014 $4.99N/A (N/A)200,000 .. 500,0000%00:00 (00:00)
55 Heroes of a Broken Land Aug 7, 2014 $14.99N/A (N/A)0 .. 20,0000%00:00 (00:00)
56 Robowars Oct 24, 2014 $14.99N/A (N/A)100,000 .. 200,0000%00:00 (00:00)
57 Eschalon: Book II May 12, 2010 $5.99N/A (N/A)20,000 .. 50,0000%00:00 (00:00)
58 QuestRun Apr 18, 2014 $2.99N/A (N/A)200,000 .. 500,0000%00:00 (00:00)
59 SpellForce 2: Faith in Destiny Jun 19, 2012 $14.99N/A (N/A/55%)100,000 .. 200,0000%00:00 (00:00)
60 Selfie : Sisters of the Amniotic Lens May 8, 2015 N/AN/A (N/A)100,000 .. 200,0000%00:00 (00:00)
61 Avernum 4 May 11, 2012 $4.99N/A (N/A)50,000 .. 100,0000%00:00 (00:00)
62 Duet Aug 3, 2015 $4.99N/A (N/A)20,000 .. 50,0000%00:00 (00:00)
63 10,000,000 Jan 15, 2013 $4.99N/A (N/A/67%)100,000 .. 200,0000%00:00 (00:00)
64 Battlepaths Oct 28, 2012 $2.99N/A (N/A)200,000 .. 500,0008.33%00:01 (00:00)
65 Redshirt Nov 13, 2013 $9.99N/A (N/A/62%)20,000 .. 50,0000%00:00 (00:00)
66 Heroes & Legends: Conquerors of Kolhar Aug 21, 2014 $9.99N/A (N/A)20,000 .. 50,0000%00:00 (00:00)
67 Citizens of Earth Jan 20, 2015 $14.99N/A (N/A/66%)100,000 .. 200,0000%00:00 (00:00)
68 Asteria Jul 3, 2014 $4.99N/A (N/A)20,000 .. 50,0000%00:00 (00:00)

Tags over time:

Access restricted.

This feature is only available to users with special access rights. Sorry.

If you want to proceed, you need to register or log in first and then back Steam Spy on Patreon. Look for Indie or Pro pledge.

Don't forget to use the same email as on Steam Spy!

Owners of this game also own:

Access restricted.

This feature is only available to users with special access rights. Sorry.

If you want to proceed, you need to register or log in first and then back Steam Spy on Patreon. Look for Indie or Pro pledge.

Don't forget to use the same email as on Steam Spy!

Playtime distribution:

Access restricted.

This feature is only available to users with special access rights. Sorry.

If you want to proceed, you need to register or log in first and then back Steam Spy on Patreon. Look for Indie or Pro pledge.

Don't forget to use the same email as on Steam Spy!

Playtime (2 weeks):

Access restricted.

This feature is only available to users with special access rights. Sorry.

If you want to proceed, you need to register or log in first and then back Steam Spy on Patreon. Look for Indie or Pro pledge.

Don't forget to use the same email as on Steam Spy!

User reviews:

Login required.

Please register or log in to see this information.